Time;durP1;ratioP1;P1;durP2;ratioP2;P2;SDS_P1;SDS_P2;PMS_P1;PMS_P2;Temp;Humidity;BMP_temperature;BMP_pressure;BME280_temperature;BME280_humidity;BME280_pressure;Samples;Min_cycle;Max_cycle;Signal;HPM_P1;HPM_P2
2021/10/05 00:00:38;;;;;;;2.27;1.50;;;15.90;99.90;;;;;;5108255;27;20203;-73
2021/10/05 00:03:06;;;;;;;1.97;1.70;;;15.80;99.90;;;;;;5110967;27;20682;-74
2021/10/05 00:05:35;;;;;;;2.03;1.47;;;15.80;99.90;;;;;;5108925;27;20628;-75
2021/10/05 00:08:02;;;;;;;1.57;1.47;;;15.80;99.90;;;;;;5110240;27;20224;-73
2021/10/05 00:10:34;;;;;;;2.10;1.77;;;15.80;99.90;;;;;;5115181;27;20195;-75
2021/10/05 00:13:01;;;;;;;3.27;1.93;;;15.80;99.90;;;;;;5111652;27;20321;-74
2021/10/05 00:15:33;;;;;;;1.67;1.50;;;15.80;99.90;;;;;;5110094;28;20670;-74
2021/10/05 00:18:00;;;;;;;3.10;1.93;;;15.80;99.90;;;;;;5114444;27;20209;-74
2021/10/05 00:20:27;;;;;;;2.20;1.90;;;15.80;99.90;;;;;;5111078;27;20247;-73
2021/10/05 00:22:57;;;;;;;2.57;1.63;;;15.70;99.90;;;;;;5108098;28;20219;-73
2021/10/05 00:25:24;;;;;;;1.70;1.60;;;15.70;99.90;;;;;;5109703;28;20782;-75
2021/10/05 00:27:53;;;;;;;1.63;1.53;;;15.70;99.90;;;;;;5106964;27;20195;-73
2021/10/05 00:30:20;;;;;;;2.03;1.80;;;15.70;99.90;;;;;;5109717;28;20200;-73
2021/10/05 00:32:48;;;;;;;1.70;1.60;;;15.70;99.90;;;;;;5116075;27;20211;-73
2021/10/05 00:35:20;;;;;;;3.27;2.10;;;15.70;99.90;;;;;;5115510;27;20228;-74
2021/10/05 00:37:50;;;;;;;6.40;4.13;;;15.70;99.90;;;;;;5108503;27;20202;-75
2021/10/05 00:40:20;;;;;;;3.07;2.77;;;15.90;99.90;;;;;;5120134;27;20235;-74
2021/10/05 00:42:47;;;;;;;4.47;3.03;;;15.70;99.90;;;;;;5118764;27;20218;-74
2021/10/05 00:45:15;;;;;;;5.20;3.10;;;15.70;99.90;;;;;;5113657;27;20635;-74
2021/10/05 00:47:42;;;;;;;6.57;4.20;;;15.70;99.90;;;;;;5115278;27;20227;-74
2021/10/05 00:50:14;;;;;;;4.37;2.93;;;15.70;99.90;;;;;;5113215;27;20735;-75
2021/10/05 00:52:43;;;;;;;3.07;2.33;;;15.80;99.90;;;;;;5115284;27;20633;-73
2021/10/05 00:55:16;;;;;;;2.20;2.03;;;15.80;99.90;;;;;;5106948;28;20298;-73
2021/10/05 00:57:48;;;;;;;2.33;2.13;;;15.90;99.90;;;;;;5103221;27;20644;-74
2021/10/05 01:00:17;;;;;;;2.80;2.23;;;15.90;99.90;;;;;;5112391;27;20223;-74
2021/10/05 01:02:47;;;;;;;6.03;3.80;;;15.90;99.90;;;;;;5108920;27;20242;-74
2021/10/05 01:05:16;;;;;;;3.17;2.47;;;15.90;99.90;;;;;;5109741;28;20298;-74
2021/10/05 01:07:48;;;;;;;2.73;2.40;;;16.00;99.90;;;;;;5113745;27;21076;-73
2021/10/05 01:10:17;;;;;;;2.10;2.00;;;16.00;99.90;;;;;;5113487;27;20215;-74
2021/10/05 01:12:48;;;;;;;5.97;3.00;;;16.00;99.90;;;;;;5111132;27;20235;-73
2021/10/05 01:15:17;;;;;;;2.63;2.43;;;16.00;99.90;;;;;;5108399;27;20653;-74
2021/10/05 01:17:49;;;;;;;2.40;2.20;;;16.00;99.90;;;;;;5114075;27;20301;-74
2021/10/05 01:20:17;;;;;;;2.73;1.80;;;16.00;99.90;;;;;;5115949;27;20222;-73
2021/10/05 01:22:51;;;;;;;2.13;2.00;;;16.00;99.90;;;;;;5106810;28;20303;-74
2021/10/05 01:25:22;;;;;;;2.03;1.93;;;15.80;99.90;;;;;;5115820;27;20265;-74
2021/10/05 01:27:51;;;;;;;2.73;2.30;;;16.00;99.90;;;;;;5113262;27;20203;-74
2021/10/05 01:30:24;;;;;;;2.47;2.10;;;16.00;99.90;;;;;;5113471;27;20222;-73
2021/10/05 01:32:51;;;;;;;4.00;2.80;;;16.00;99.90;;;;;;5110870;27;20277;-74
2021/10/05 01:35:26;;;;;;;5.73;3.20;;;16.10;99.90;;;;;;5124159;27;20192;-74
2021/10/05 01:37:55;;;;;;;6.00;2.60;;;16.10;99.90;;;;;;5108167;27;20210;-73
2021/10/05 01:40:26;;;;;;;2.53;2.20;;;16.10;99.90;;;;;;5108427;28;20560;-74
2021/10/05 01:42:56;;;;;;;5.47;2.17;;;16.10;99.90;;;;;;5105820;28;20198;-74
2021/10/05 01:45:24;;;;;;;1.83;1.73;;;16.10;99.90;;;;;;5108003;27;20227;-75
2021/10/05 01:47:51;;;;;;;1.70;1.60;;;16.10;99.90;;;;;;5099981;27;20207;-74
2021/10/05 01:50:19;;;;;;;1.60;1.50;;;16.10;99.90;;;;;;5097823;28;20204;-73
2021/10/05 01:52:47;;;;;;;1.30;1.30;;;16.10;99.90;;;;;;5107288;27;20211;-73
2021/10/05 01:55:18;;;;;;;1.30;1.30;;;16.10;99.90;;;;;;5108038;28;20204;-73
2021/10/05 01:57:45;;;;;;;1.73;1.60;;;16.10;99.90;;;;;;5102215;27;20223;-73
2021/10/05 02:00:19;;;;;;;2.23;1.53;;;16.10;99.90;;;;;;5108063;28;20640;-74
2021/10/05 02:02:49;;;;;;;2.20;1.40;;;16.10;99.90;;;;;;5107104;27;20227;-74
2021/10/05 02:05:16;;;;;;;3.80;1.40;;;16.10;99.90;;;;;;5109908;27;20250;-74
2021/10/05 02:07:43;;;;;;;4.30;1.30;;;16.20;99.90;;;;;;5108823;27;20219;-74
2021/10/05 02:10:11;;;;;;;1.33;1.00;;;16.20;99.90;;;;;;5106901;27;20196;-74
2021/10/05 02:12:39;;;;;;;0.87;0.87;;;16.20;99.90;;;;;;5109883;27;20779;-74
2021/10/05 02:15:07;;;;;;;2.83;1.43;;;16.20;99.90;;;;;;5106544;27;20198;-73
2021/10/05 02:17:34;;;;;;;1.67;1.33;;;16.20;99.90;;;;;;5110342;27;20192;-74
2021/10/05 02:20:05;;;;;;;2.60;1.10;;;16.20;99.90;;;;;;5104433;28;20571;-74
2021/10/05 02:22:32;;;;;;;2.00;1.30;;;15.70;99.90;;;;;;5102291;27;20200;-73
2021/10/05 02:24:59;;;;;;;1.40;1.30;;;16.20;99.90;;;;;;5112454;27;20188;-74
2021/10/05 02:27:26;;;;;;;2.07;1.67;;;16.20;99.90;;;;;;5111970;27;20225;-74
2021/10/05 02:29:55;;;;;;;3.47;1.43;;;16.20;99.90;;;;;;5106996;27;20520;-74
2021/10/05 02:32:22;;;;;;;2.10;1.20;;;16.20;99.90;;;;;;5108064;27;20276;-74
2021/10/05 02:34:49;;;;;;;2.10;1.47;;;16.30;99.90;;;;;;5106021;28;20192;-74
2021/10/05 02:37:16;;;;;;;1.23;1.23;;;16.30;99.90;;;;;;5106182;28;20191;-74
2021/10/05 02:39:44;;;;;;;6.00;1.80;;;16.30;99.90;;;;;;5102951;27;20378;-74
2021/10/05 02:42:11;;;;;;;1.57;1.47;;;16.30;99.90;;;;;;5113447;27;20218;-72
2021/10/05 02:44:39;;;;;;;7.90;2.00;;;16.30;99.90;;;;;;5116322;27;20210;-73
2021/10/05 02:47:08;;;;;;;1.73;1.63;;;16.30;99.90;;;;;;5103844;27;20539;-73
2021/10/05 02:49:36;;;;;;;1.70;1.47;;;16.30;99.90;;;;;;5115878;27;20394;-73
2021/10/05 02:52:04;;;;;;;1.20;1.20;;;16.40;99.90;;;;;;5104734;28;20344;-73
2021/10/05 02:54:31;;;;;;;1.67;1.57;;;16.40;99.90;;;;;;5119342;27;20278;-73
2021/10/05 02:56:58;;;;;;;1.30;1.30;;;16.40;99.90;;;;;;5112573;27;20192;-73
2021/10/05 02:59:25;;;;;;;1.03;1.03;;;16.40;99.90;;;;;;5106252;28;20218;-73
2021/10/05 03:01:52;;;;;;;2.43;2.23;;;16.50;99.90;;;;;;5104410;28;20201;-73
2021/10/05 03:04:20;;;;;;;4.30;2.00;;;16.50;99.90;;;;;;5099760;28;20696;-73
2021/10/05 03:06:47;;;;;;;2.03;1.93;;;16.50;99.90;;;;;;5111550;27;20195;-73
2021/10/05 03:09:14;;;;;;;2.30;2.10;;;16.50;99.90;;;;;;5105160;28;20295;-73
2021/10/05 03:11:41;;;;;;;1.90;1.80;;;16.50;99.90;;;;;;5114553;28;20215;-73
2021/10/05 03:14:08;;;;;;;1.40;1.30;;;16.60;99.90;;;;;;5105814;28;20685;-73
2021/10/05 03:16:35;;;;;;;1.50;1.40;;;16.60;99.90;;;;;;5115004;28;20388;-73
2021/10/05 03:19:03;;;;;;;1.33;1.23;;;16.60;99.90;;;;;;5112590;27;20612;-73
2021/10/05 03:21:31;;;;;;;1.80;1.70;;;16.60;99.90;;;;;;5114174;27;20634;-72
2021/10/05 03:23:58;;;;;;;2.10;2.00;;;16.70;99.90;;;;;;5115919;27;20197;-72
2021/10/05 03:26:25;;;;;;;1.73;1.63;;;16.70;99.90;;;;;;5119740;27;20517;-73
2021/10/05 03:28:52;;;;;;;2.90;2.23;;;16.70;99.90;;;;;;5114097;27;20647;-73
2021/10/05 03:31:19;;;;;;;3.10;2.90;;;16.70;99.90;;;;;;5115483;27;20260;-72
2021/10/05 03:33:47;;;;;;;2.63;2.43;;;16.70;99.90;;;;;;5113192;27;20200;-73
2021/10/05 03:36:15;;;;;;;2.57;2.37;;;16.70;99.90;;;;;;5122407;27;20441;-73
2021/10/05 03:38:44;;;;;;;2.27;2.03;;;16.70;99.90;;;;;;5115428;27;20231;-74
2021/10/05 03:41:12;;;;;;;5.63;4.80;;;16.70;99.90;;;;;;5115219;27;20624;-73
2021/10/05 03:43:40;;;;;;;9.73;6.10;;;16.70;99.90;;;;;;5108271;27;20200;-73
2021/10/05 03:46:08;;;;;;;7.17;5.60;;;16.70;99.90;;;;;;5116940;27;20584;-73
2021/10/05 03:48:35;;;;;;;9.93;7.03;;;16.70;99.90;;;;;;5108083;28;20196;-73
2021/10/05 03:51:02;;;;;;;7.27;6.07;;;16.60;99.90;;;;;;5108492;28;20670;-73
2021/10/05 03:53:31;;;;;;;9.97;7.17;;;16.60;99.90;;;;;;5104782;28;20302;-74
2021/10/05 03:56:00;;;;;;;11.83;7.00;;;16.50;99.90;;;;;;5108750;28;20209;-73
2021/10/05 03:58:27;;;;;;;9.57;6.50;;;16.40;99.90;;;;;;5106114;28;20210;-73
2021/10/05 04:00:55;;;;;;;12.10;7.73;;;16.40;99.90;;;;;;5106843;28;20315;-74
2021/10/05 04:03:23;;;;;;;11.27;7.77;;;16.40;99.90;;;;;;5107818;28;20746;-74
2021/10/05 04:05:51;;;;;;;7.30;6.07;;;16.30;99.90;;;;;;5113175;27;20206;-74
2021/10/05 04:08:19;;;;;;;7.80;6.10;;;16.20;99.90;;;;;;5109467;27;20313;-74
2021/10/05 04:10:46;;;;;;;7.07;5.17;;;16.10;99.90;;;;;;5111627;27;20192;-74
2021/10/05 04:13:14;;;;;;;7.67;6.07;;;16.10;99.90;;;;;;5113200;27;20200;-74
2021/10/05 04:15:42;;;;;;;7.30;6.03;;;16.00;99.90;;;;;;5106358;27;20744;-74
2021/10/05 04:18:09;;;;;;;6.90;5.30;;;15.90;99.90;;;;;;5106873;27;20200;-73
2021/10/05 04:20:36;;;;;;;8.07;6.13;;;15.90;99.90;;;;;;5111649;27;20223;-73
2021/10/05 04:23:04;;;;;;;7.97;6.37;;;15.80;99.90;;;;;;5103065;27;20187;-73
2021/10/05 04:25:31;;;;;;;6.00;5.40;;;15.70;99.90;;;;;;5122721;27;20191;-72
2021/10/05 04:27:58;;;;;;;5.60;4.90;;;15.70;99.90;;;;;;5112630;27;20204;-73
2021/10/05 04:30:26;;;;;;;7.33;5.53;;;15.60;99.90;;;;;;5123211;27;20537;-73
2021/10/05 04:32:53;;;;;;;5.37;4.87;;;15.60;99.90;;;;;;5116120;27;20212;-73
2021/10/05 04:35:21;;;;;;;6.60;5.77;;;15.50;99.90;;;;;;5109571;28;20191;-74
2021/10/05 04:37:48;;;;;;;6.03;5.30;;;15.40;99.90;;;;;;5107700;27;20535;-73
2021/10/05 04:40:15;;;;;;;5.30;4.80;;;15.40;99.90;;;;;;5124491;27;20311;-73
2021/10/05 04:42:43;;;;;;;6.37;5.17;;;15.40;99.90;;;;;;5122115;27;20195;-73
2021/10/05 04:45:10;;;;;;;7.43;5.27;;;15.30;99.90;;;;;;5119745;27;20291;-74
2021/10/05 04:47:39;;;;;;;5.40;4.87;;;15.30;99.90;;;;;;5110206;27;20207;-74
2021/10/05 04:50:08;;;;;;;5.53;4.63;;;15.30;99.90;;;;;;5109243;27;20663;-73
2021/10/05 04:52:35;;;;;;;5.60;5.00;;;15.30;99.90;;;;;;5109030;28;20224;-73
2021/10/05 04:55:03;;;;;;;4.53;4.13;;;15.30;99.90;;;;;;5109003;27;20215;-74
2021/10/05 04:57:29;;;;;;;5.70;3.90;;;15.20;99.90;;;;;;5106469;27;20220;-74
2021/10/05 04:59:56;;;;;;;4.30;3.90;;;15.30;99.90;;;;;;5109455;27;20524;-73
2021/10/05 05:02:24;;;;;;;4.03;3.73;;;15.30;99.90;;;;;;5101797;27;20783;-73
2021/10/05 05:04:52;;;;;;;3.83;3.53;;;15.30;99.90;;;;;;5101909;27;20546;-72
2021/10/05 05:07:19;;;;;;;3.80;3.50;;;15.30;99.90;;;;;;5117914;27;20290;-73
2021/10/05 05:09:46;;;;;;;4.13;3.50;;;15.30;99.90;;;;;;5109723;27;20202;-73
2021/10/05 05:12:13;;;;;;;4.33;3.93;;;15.30;99.90;;;;;;5107730;27;20514;-74
2021/10/05 05:14:41;;;;;;;3.67;3.37;;;15.30;99.90;;;;;;5121180;27;20972;-73
2021/10/05 05:17:08;;;;;;;4.57;3.97;;;15.30;99.90;;;;;;5119159;27;20642;-73
2021/10/05 05:19:35;;;;;;;4.80;4.30;;;15.30;99.90;;;;;;5111594;27;20766;-73
2021/10/05 05:22:03;;;;;;;5.00;4.00;;;15.40;99.90;;;;;;5112472;27;20195;-73
2021/10/05 05:24:30;;;;;;;4.33;4.00;;;15.30;99.90;;;;;;5107474;27;20195;-74
2021/10/05 05:26:57;;;;;;;4.53;4.07;;;15.30;99.90;;;;;;5117023;27;20267;-73
2021/10/05 05:29:24;;;;;;;8.33;3.97;;;15.30;99.90;;;;;;5105268;27;20542;-73
2021/10/05 05:31:52;;;;;;;4.63;3.60;;;15.50;99.90;;;;;;5107752;27;20532;-73
2021/10/05 05:34:21;;;;;;;3.40;3.10;;;15.40;99.90;;;;;;5107615;27;20203;-73
2021/10/05 05:36:48;;;;;;;5.13;4.27;;;15.40;99.90;;;;;;5111767;27;20212;-74
2021/10/05 05:39:17;;;;;;;3.80;3.50;;;15.40;99.90;;;;;;5112035;27;20203;-74
2021/10/05 05:41:45;;;;;;;6.17;4.57;;;15.40;99.90;;;;;;5091389;28;20228;-75
2021/10/05 05:44:12;;;;;;;6.93;4.80;;;15.30;99.90;;;;;;5106962;28;20195;-73
2021/10/05 05:46:39;;;;;;;4.70;3.80;;;15.30;99.90;;;;;;5106839;28;20211;-74
2021/10/05 05:49:06;;;;;;;5.43;4.50;;;15.30;99.90;;;;;;5107358;28;20195;-74
2021/10/05 05:51:35;;;;;;;6.17;4.80;;;15.20;99.90;;;;;;5108781;27;20629;-72
2021/10/05 05:54:02;;;;;;;6.63;4.97;;;15.20;99.90;;;;;;5107697;27;20203;-72
2021/10/05 05:56:30;;;;;;;6.53;5.23;;;15.20;99.90;;;;;;5107740;27;20568;-73
2021/10/05 05:58:59;;;;;;;5.93;4.90;;;15.10;99.90;;;;;;5106939;27;20207;-74
2021/10/05 06:01:27;;;;;;;7.27;5.37;;;15.10;99.90;;;;;;5108276;27;20234;-72
2021/10/05 06:03:54;;;;;;;6.60;5.00;;;15.10;99.90;;;;;;5106897;27;20227;-73
2021/10/05 06:06:21;;;;;;;5.50;4.77;;;15.10;99.90;;;;;;5105216;27;20760;-72
2021/10/05 06:08:49;;;;;;;6.73;5.23;;;15.10;99.90;;;;;;5118349;27;20200;-72
2021/10/05 06:11:18;;;;;;;5.87;4.57;;;15.10;99.90;;;;;;5117929;27;20599;-72
2021/10/05 06:13:48;;;;;;;6.33;4.97;;;15.10;99.90;;;;;;5112885;27;20192;-73
2021/10/05 06:16:15;;;;;;;6.33;5.10;;;15.10;99.90;;;;;;5110448;27;20273;-73
2021/10/05 06:18:42;;;;;;;5.33;4.43;;;15.10;99.90;;;;;;5111786;27;20239;-73
2021/10/05 06:21:10;;;;;;;8.30;4.57;;;15.10;99.90;;;;;;5103875;27;20219;-73
2021/10/05 06:23:37;;;;;;;5.70;4.57;;;15.10;99.90;;;;;;5104619;27;20194;-73
2021/10/05 06:26:05;;;;;;;5.97;4.30;;;15.10;99.90;;;;;;5111298;27;20291;-73
2021/10/05 06:28:32;;;;;;;5.87;4.97;;;15.10;99.90;;;;;;5104855;28;20394;-74
2021/10/05 06:31:01;;;;;;;6.83;5.13;;;15.20;99.90;;;;;;5112516;27;20654;-73
2021/10/05 06:33:29;;;;;;;7.07;5.60;;;15.20;99.90;;;;;;5105235;27;20196;-73
2021/10/05 06:35:56;;;;;;;7.70;5.77;;;15.20;99.90;;;;;;5111636;27;20248;-74
2021/10/05 06:38:23;;;;;;;7.20;5.60;;;15.20;99.90;;;;;;5113022;27;20618;-73
2021/10/05 06:40:50;;;;;;;6.40;5.20;;;15.30;99.90;;;;;;5115736;27;20490;-72
2021/10/05 06:43:19;;;;;;;8.00;4.90;;;15.40;99.90;;;;;;5108275;27;20709;-74
2021/10/05 06:45:46;;;;;;;6.10;4.90;;;15.40;99.90;;;;;;5116135;27;20221;-72
2021/10/05 06:48:14;;;;;;;8.63;5.70;;;15.40;99.90;;;;;;5114539;27;20262;-73
2021/10/05 06:50:41;;;;;;;8.47;6.03;;;15.50;99.90;;;;;;5107061;28;20204;-72
2021/10/05 06:53:09;;;;;;;7.00;5.80;;;15.50;99.90;;;;;;5109009;28;20294;-73
2021/10/05 06:55:36;;;;;;;7.50;5.67;;;15.60;99.90;;;;;;5107989;27;20279;-73
2021/10/05 06:58:03;;;;;;;8.13;5.67;;;15.90;99.90;;;;;;5105982;27;20204;-73
2021/10/05 07:00:30;;;;;;;10.73;6.70;;;16.40;99.90;;;;;;5107019;28;20220;-73
2021/10/05 07:02:57;;;;;;;6.67;5.40;;;16.90;99.90;;;;;;5108920;27;20246;-73
2021/10/05 07:05:25;;;;;;;5.50;5.00;;;17.20;99.90;;;;;;5110486;28;20260;-73
2021/10/05 07:07:53;;;;;;;8.53;5.50;;;17.50;99.90;;;;;;5103771;28;20188;-73
2021/10/05 07:10:23;;;;;;;5.87;5.17;;;17.90;99.90;;;;;;5110265;28;20291;-74
2021/10/05 07:12:50;;;;;;;8.77;5.47;;;18.40;99.90;;;;;;5111301;27;20198;-73
2021/10/05 07:15:18;;;;;;;6.70;5.60;;;18.90;99.90;;;;;;5118955;27;20207;-73
2021/10/05 07:17:45;;;;;;;5.28;4.78;;;19.50;99.90;;;;;;5110934;27;20223;-73
2021/10/05 07:20:12;;;;;;;7.78;5.38;;;20.30;99.90;;;;;;5105850;28;20603;-73
2021/10/05 07:22:41;;;;;;;4.97;4.50;;;20.80;99.90;;;;;;5117079;27;20200;-73
2021/10/05 07:25:09;;;;;;;6.75;5.35;;;21.00;99.90;;;;;;5115187;27;20290;-73
2021/10/05 07:27:36;;;;;;;8.48;5.15;;;21.00;99.90;;;;;;5107159;27;20563;-73
2021/10/05 07:30:05;;;;;;;8.73;6.25;;;20.90;99.90;;;;;;5107775;28;20605;-72
2021/10/05 07:32:32;;;;;;;7.60;5.70;;;20.60;99.90;;;;;;5112172;28;20207;-72
2021/10/05 07:34:59;;;;;;;10.93;6.65;;;20.30;99.90;;;;;;5109143;28;20206;-73
2021/10/05 07:37:27;;;;;;;10.07;7.28;;;20.10;99.90;;;;;;5106901;28;20670;-73
2021/10/05 07:39:57;;;;;;;8.63;5.95;;;19.80;99.90;;;;;;5111445;28;20576;-73
2021/10/05 07:42:24;;;;;;;8.88;5.47;;;19.70;99.90;;;;;;5110621;28;20294;-73
2021/10/05 07:44:51;;;;;;;9.48;6.50;;;19.50;99.90;;;;;;5114310;28;20210;-73
2021/10/05 07:47:18;;;;;;;8.07;5.78;;;19.30;99.90;;;;;;5094768;28;20224;-73
2021/10/05 07:49:45;;;;;;;9.13;6.88;;;19.10;99.90;;;;;;5106772;28;20222;-73
2021/10/05 07:52:12;;;;;;;8.30;6.78;;;19.00;99.90;;;;;;5106326;28;20199;-74
2021/10/05 07:54:39;;;;;;;8.30;6.63;;;18.80;99.90;;;;;;5106460;28;20629;-73
2021/10/05 07:57:08;;;;;;;16.10;8.02;;;18.70;99.90;;;;;;5105372;28;20200;-73
2021/10/05 07:59:36;;;;;;;10.35;7.68;;;18.50;99.90;;;;;;5106194;28;20204;-73
2021/10/05 08:02:04;;;;;;;10.00;7.25;;;18.40;99.90;;;;;;5105744;28;20215;-73
2021/10/05 08:04:31;;;;;;;9.82;6.13;;;18.30;99.90;;;;;;5108425;28;20708;-73
2021/10/05 08:06:58;;;;;;;10.57;6.78;;;18.30;99.90;;;;;;5124267;27;20315;-73
2021/10/05 08:09:25;;;;;;;10.18;6.90;;;18.20;99.90;;;;;;5128097;27;20198;-72
2021/10/05 08:11:52;;;;;;;12.48;7.90;;;18.20;99.90;;;;;;5120071;27;20198;-72
2021/10/05 08:14:20;;;;;;;12.75;7.78;;;18.20;99.90;;;;;;5109395;27;20295;-73
2021/10/05 08:16:47;;;;;;;13.15;8.02;;;18.30;99.90;;;;;;5110491;27;20218;-74
2021/10/05 08:19:15;;;;;;;12.43;7.80;;;18.30;99.90;;;;;;5121828;27;20211;-73
2021/10/05 08:21:42;;;;;;;10.68;6.75;;;18.50;99.90;;;;;;5109633;27;20212;-73
2021/10/05 08:24:10;;;;;;;11.35;8.15;;;18.70;99.90;;;;;;5109145;28;20204;-72
2021/10/05 08:26:37;;;;;;;9.70;7.13;;;18.90;99.90;;;;;;5127875;27;20211;-72
2021/10/05 08:29:04;;;;;;;8.63;6.53;;;19.20;99.90;;;;;;5120573;27;20215;-73
2021/10/05 08:31:33;;;;;;;8.40;5.80;;;19.70;99.90;;;;;;5108970;28;20196;-73
2021/10/05 08:34:01;;;;;;;9.32;6.28;;;20.30;99.90;;;;;;5110290;27;20678;-74
2021/10/05 08:36:28;;;;;;;12.30;7.43;;;21.00;99.90;;;;;;5111651;27;20219;-73
2021/10/05 08:38:55;;;;;;;18.15;8.50;;;21.40;99.90;;;;;;5110438;27;20195;-73
2021/10/05 08:41:23;;;;;;;10.43;7.38;;;21.80;99.90;;;;;;5110095;27;20218;-73
2021/10/05 08:43:51;;;;;;;11.20;7.70;;;22.30;99.20;;;;;;5106950;27;20660;-72
2021/10/05 08:46:18;;;;;;;10.48;7.50;;;22.60;98.10;;;;;;5109001;28;20202;-73
2021/10/05 08:48:46;;;;;;;12.30;7.20;;;22.80;97.60;;;;;;5094305;28;20275;-73
2021/10/05 08:51:14;;;;;;;9.63;6.95;;;22.90;96.80;;;;;;5106669;27;20787;-73
2021/10/05 08:53:41;;;;;;;9.90;6.97;;;23.50;96.20;;;;;;5109842;28;20241;-73
2021/10/05 08:56:10;;;;;;;12.50;6.93;;;23.90;94.60;;;;;;5108657;28;20287;-74
2021/10/05 08:58:40;;;;;;;13.40;7.68;;;24.70;93.60;;;;;;5108296;28;20205;-73
2021/10/05 09:01:12;;;;;;;9.23;6.75;;;25.50;91.40;;;;;;5109458;28;20247;-74
2021/10/05 09:03:49;;;;;;;8.27;6.47;;;26.00;90.20;;;;;;5108339;28;20235;-74
2021/10/05 09:06:17;;;;;;;13.05;7.63;;;26.70;87.50;;;;;;5108449;28;20205;-74
2021/10/05 09:08:45;;;;;;;13.50;7.75;;;27.20;81.30;;;;;;5109600;28;20198;-73
2021/10/05 09:11:14;;;;;;;11.57;6.80;;;27.10;78.90;;;;;;5109270;28;20200;-74
2021/10/05 09:13:44;;;;;;;8.88;6.38;;;27.10;78.40;;;;;;5106235;28;20219;-74
2021/10/05 09:16:22;;;;;;;8.35;6.72;;;27.10;77.90;;;;;;5107551;28;20709;-74
2021/10/05 09:18:59;;;;;;;10.50;6.78;;;26.80;76.20;;;;;;5109518;27;20271;-74
2021/10/05 09:21:29;;;;;;;8.32;6.60;;;26.60;77.10;;;;;;5105747;28;20286;-73
2021/10/05 09:23:59;;;;;;;8.45;6.43;;;26.60;76.80;;;;;;5108292;28;20199;-73
2021/10/05 09:26:38;;;;;;;12.48;6.50;;;26.80;75.40;;;;;;5108912;28;20347;-74
2021/10/05 09:29:15;;;;;;;10.15;7.00;;;27.00;74.60;;;;;;5120294;27;20234;-73
2021/10/05 09:32:10;;;;;;;10.60;6.93;;;27.40;73.10;;;;;;5106081;28;20203;-73
2021/10/05 09:34:43;;;;;;;14.30;8.18;;;27.90;70.90;;;;;;5102723;28;20192;-73
2021/10/05 09:37:13;;;;;;;10.85;7.38;;;28.50;68.30;;;;;;5109295;27;20187;-73
2021/10/05 09:39:46;;;;;;;10.25;6.95;;;28.90;67.40;;;;;;5108070;28;20200;-73
2021/10/05 09:42:20;;;;;;;9.43;6.63;;;29.40;65.00;;;;;;5105122;28;20226;-73
2021/10/05 09:44:51;;;;;;;7.80;5.75;;;29.90;63.70;;;;;;5107304;28;20295;-73
2021/10/05 09:47:18;;;;;;;8.65;6.22;;;30.50;62.30;;;;;;5102151;28;20696;-73
2021/10/05 09:49:47;;;;;;;6.85;6.18;;;31.10;60.10;;;;;;5106649;28;20207;-74
2021/10/05 09:52:14;;;;;;;9.10;7.30;;;31.80;58.50;;;;;;5108408;28;20524;-73
2021/10/05 09:54:43;;;;;;;6.65;5.95;;;32.10;55.90;;;;;;5108834;28;20283;-74
2021/10/05 09:57:10;;;;;;;8.77;6.72;;;31.90;55.80;;;;;;5105742;28;20211;-73
2021/10/05 09:59:37;;;;;;;8.65;7.00;;;31.40;55.10;;;;;;5109212;28;20898;-73
2021/10/05 10:02:21;;;;;;;8.38;6.75;;;31.00;54.50;;;;;;5108154;28;20212;-74
2021/10/05 10:05:06;;;;;;;8.23;6.43;;;30.80;55.10;;;;;;5106908;28;20192;-74
2021/10/05 10:07:37;;;;;;;8.48;6.50;;;30.90;55.00;;;;;;5108605;28;20196;-73
2021/10/05 10:10:15;;;;;;;7.55;6.57;;;31.00;54.50;;;;;;5109481;28;20219;-73
2021/10/05 10:12:49;;;;;;;9.65;7.13;;;31.10;54.40;;;;;;5105186;27;20237;-75
2021/10/05 10:15:19;;;;;;;7.97;6.40;;;31.20;53.90;;;;;;5107459;28;20200;-74
2021/10/05 10:17:46;;;;;;;10.45;7.28;;;30.80;54.10;;;;;;5108556;28;20222;-73
2021/10/05 10:20:24;;;;;;;15.38;7.93;;;30.00;54.10;;;;;;5106015;28;20295;-73
2021/10/05 10:22:54;;;;;;;10.23;6.47;;;29.30;54.80;;;;;;5108002;28;20272;-73
2021/10/05 10:25:24;;;;;;;8.25;6.13;;;28.70;56.00;;;;;;5112733;27;20203;-73
2021/10/05 10:28:11;;;;;;;7.22;5.38;;;28.30;56.40;;;;;;5106768;28;20219;-73
2021/10/05 10:31:01;;;;;;;7.18;6.05;;;28.60;57.10;;;;;;5104342;28;20230;-73
2021/10/05 10:33:30;;;;;;;7.78;6.53;;;29.40;56.10;;;;;;5107973;28;20249;-73
2021/10/05 10:36:00;;;;;;;10.50;6.35;;;30.10;55.20;;;;;;5108362;28;20194;-73
2021/10/05 10:38:28;;;;;;;9.52;6.72;;;30.70;54.50;;;;;;5113571;27;20227;-74
2021/10/05 10:40:56;;;;;;;9.15;6.85;;;31.20;53.30;;;;;;5109166;28;20195;-73
2021/10/05 10:43:26;;;;;;;9.93;7.05;;;31.50;52.40;;;;;;5105630;28;20208;-74
2021/10/05 10:45:55;;;;;;;6.82;6.20;;;31.60;51.90;;;;;;5109110;28;20202;-73
2021/10/05 10:48:30;;;;;;;9.30;6.22;;;31.50;51.90;;;;;;5099502;28;20199;-74
2021/10/05 10:51:01;;;;;;;8.38;5.55;;;31.50;52.00;;;;;;5107050;28;21011;-73
2021/10/05 10:53:38;;;;;;;9.32;6.55;;;31.70;51.90;;;;;;5108052;28;20226;-74
2021/10/05 10:56:06;;;;;;;7.90;6.50;;;31.90;51.10;;;;;;5107685;28;20560;-72
2021/10/05 10:58:36;;;;;;;12.50;9.00;;;32.10;50.60;;;;;;5106458;28;20206;-73
2021/10/05 11:01:03;;;;;;;11.55;8.20;;;32.10;49.30;;;;;;5108239;28;20647;-73
2021/10/05 11:03:30;;;;;;;10.57;7.10;;;31.90;49.30;;;;;;5106844;28;20228;-73
2021/10/05 11:05:58;;;;;;;8.45;6.63;;;31.70;49.40;;;;;;5109125;28;20203;-74
2021/10/05 11:08:25;;;;;;;9.73;6.63;;;31.60;49.30;;;;;;5107706;28;20194;-72
2021/10/05 11:10:52;;;;;;;8.52;6.90;;;31.50;49.50;;;;;;5110382;28;20199;-73
2021/10/05 11:13:19;;;;;;;9.82;6.82;;;31.30;49.30;;;;;;5105946;28;20529;-72
2021/10/05 11:15:49;;;;;;;10.70;7.05;;;31.00;50.30;;;;;;5106369;28;20252;-73
2021/10/05 11:18:17;;;;;;;13.32;7.20;;;30.60;49.90;;;;;;5105635;28;20614;-73
2021/10/05 11:20:52;;;;;;;7.28;6.57;;;30.00;50.30;;;;;;5106172;28;20195;-73
2021/10/05 11:23:25;;;;;;;10.43;6.68;;;29.70;50.90;;;;;;5106185;28;20234;-73
2021/10/05 11:25:53;;;;;;;8.27;6.10;;;29.70;51.20;;;;;;5108438;28;20192;-73
2021/10/05 11:28:23;;;;;;;10.38;7.00;;;29.70;51.00;;;;;;5106278;28;20647;-73
2021/10/05 11:30:53;;;;;;;13.85;7.03;;;29.90;50.70;;;;;;5108700;28;20671;-73
2021/10/05 11:33:27;;;;;;;9.73;7.20;;;30.00;51.20;;;;;;5106301;28;20199;-73
2021/10/05 11:35:55;;;;;;;9.73;6.50;;;30.10;50.40;;;;;;5106707;28;20211;-73
2021/10/05 11:38:24;;;;;;;10.43;6.72;;;30.20;50.40;;;;;;5106379;28;20200;-73
2021/10/05 11:40:54;;;;;;;8.80;5.82;;;30.10;50.30;;;;;;5110101;28;20196;-72
2021/10/05 11:43:31;;;;;;;8.77;6.30;;;29.50;50.70;;;;;;5109301;28;20216;-73
2021/10/05 11:45:58;;;;;;;8.95;6.22;;;28.90;51.60;;;;;;5110386;27;20237;-74
2021/10/05 11:48:25;;;;;;;9.27;6.47;;;28.20;52.30;;;;;;5106554;27;20739;-74
2021/10/05 11:51:02;;;;;;;8.13;5.93;;;27.60;53.10;;;;;;5106627;27;20663;-74
2021/10/05 11:53:34;;;;;;;6.40;5.18;;;27.00;54.00;;;;;;5109467;28;20188;-74
2021/10/05 11:56:06;;;;;;;8.45;5.40;;;26.60;54.90;;;;;;5109586;28;20253;-73
2021/10/05 11:58:44;;;;;;;11.13;5.97;;;26.30;55.60;;;;;;5109596;28;20533;-73
2021/10/05 12:01:17;;;;;;;12.88;6.68;;;26.00;56.20;;;;;;5109184;28;20204;-73
2021/10/05 12:03:46;;;;;;;9.30;5.95;;;25.60;56.90;;;;;;5108642;28;20244;-73
2021/10/05 12:06:31;;;;;;;9.95;5.97;;;25.20;57.50;;;;;;5108644;28;20521;-72
2021/10/05 12:09:00;;;;;;;7.80;6.20;;;24.80;58.40;;;;;;5113281;27;20207;-74
2021/10/05 12:11:38;;;;;;;10.00;6.50;;;24.60;59.00;;;;;;5115504;27;20571;-73
2021/10/05 12:14:05;;;;;;;10.55;5.63;;;24.40;59.60;;;;;;5116413;27;20187;-73
2021/10/05 12:16:32;;;;;;;8.77;5.85;;;24.20;60.10;;;;;;5114766;27;20915;-72
2021/10/05 12:19:02;;;;;;;8.70;5.32;;;24.10;60.70;;;;;;5119275;27;20223;-73
2021/10/05 12:21:29;;;;;;;5.95;4.50;;;24.00;61.00;;;;;;5104706;27;20570;-73
2021/10/05 12:24:00;;;;;;;10.02;6.43;;;23.90;61.40;;;;;;5112412;27;20311;-73
2021/10/05 12:26:28;;;;;;;10.48;5.97;;;23.90;62.00;;;;;;5105301;27;20199;-73
2021/10/05 12:28:57;;;;;;;9.18;5.38;;;23.80;62.50;;;;;;5119270;27;20468;-73
2021/10/05 12:31:27;;;;;;;13.45;7.00;;;23.70;63.00;;;;;;5115420;27;20541;-73
2021/10/05 12:33:57;;;;;;;7.93;6.10;;;23.60;63.70;;;;;;5103692;27;20211;-73
2021/10/05 12:36:24;;;;;;;11.20;5.72;;;23.50;64.20;;;;;;5107456;27;20191;-73
2021/10/05 12:38:51;;;;;;;7.68;5.15;;;23.30;64.60;;;;;;5110461;27;20203;-73
2021/10/05 12:41:20;;;;;;;7.00;5.30;;;23.30;65.00;;;;;;5110332;27;20311;-72
2021/10/05 12:43:48;;;;;;;9.95;5.88;;;23.40;65.40;;;;;;5108403;28;20239;-73
2021/10/05 12:46:18;;;;;;;10.90;6.65;;;23.30;65.70;;;;;;5108807;28;20204;-73
2021/10/05 12:48:47;;;;;;;12.00;6.30;;;23.30;66.00;;;;;;5110143;28;20200;-72
2021/10/05 12:51:16;;;;;;;9.15;6.35;;;23.10;66.20;;;;;;5110466;28;20652;-73
2021/10/05 12:53:45;;;;;;;6.70;5.43;;;23.00;66.70;;;;;;5110620;27;20665;-73